sensor_id;sensor_type;location;lat;lon;timestamp;temperature;humidity
14755;DHT22;7469;50.906;6.952;2023-08-06T00:01:07;15.90;99.90
14755;DHT22;7469;50.906;6.952;2023-08-06T00:03:36;15.90;99.90
14755;DHT22;7469;50.906;6.952;2023-08-06T00:06:05;15.80;99.90
14755;DHT22;7469;50.906;6.952;2023-08-06T00:08:33;15.90;99.90
14755;DHT22;7469;50.906;6.952;2023-08-06T00:11:01;15.80;99.90
14755;DHT22;7469;50.906;6.952;2023-08-06T00:13:28;15.80;99.90
14755;DHT22;7469;50.906;6.952;2023-08-06T00:16:08;15.80;99.90
14755;DHT22;7469;50.906;6.952;2023-08-06T00:18:38;15.80;99.90
14755;DHT22;7469;50.906;6.952;2023-08-06T00:21:06;15.80;99.90
14755;DHT22;7469;50.906;6.952;2023-08-06T00:23:34;15.70;99.90
14755;DHT22;7469;50.906;6.952;2023-08-06T00:26:02;15.70;99.90
14755;DHT22;7469;50.906;6.952;2023-08-06T00:28:30;15.70;99.90
14755;DHT22;7469;50.906;6.952;2023-08-06T00:30:58;15.70;99.90
14755;DHT22;7469;50.906;6.952;2023-08-06T00:33:26;15.60;99.90
14755;DHT22;7469;50.906;6.952;2023-08-06T00:35:55;15.60;99.90
14755;DHT22;7469;50.906;6.952;2023-08-06T00:38:23;15.60;99.90
14755;DHT22;7469;50.906;6.952;2023-08-06T00:40:51;15.60;99.90
14755;DHT22;7469;50.906;6.952;2023-08-06T00:43:20;15.50;99.90
14755;DHT22;7469;50.906;6.952;2023-08-06T00:45:48;15.50;99.90
14755;DHT22;7469;50.906;6.952;2023-08-06T00:48:15;15.50;99.90
14755;DHT22;7469;50.906;6.952;2023-08-06T00:50:44;15.50;99.90
14755;DHT22;7469;50.906;6.952;2023-08-06T00:53:13;15.50;99.90
14755;DHT22;7469;50.906;6.952;2023-08-06T00:55:43;15.40;99.90
14755;DHT22;7469;50.906;6.952;2023-08-06T00:58:12;15.50;99.90
14755;DHT22;7469;50.906;6.952;2023-08-06T01:00:40;15.50;99.90
14755;DHT22;7469;50.906;6.952;2023-08-06T01:03:08;15.50;99.90
14755;DHT22;7469;50.906;6.952;2023-08-06T01:05:36;15.50;99.90
14755;DHT22;7469;50.906;6.952;2023-08-06T01:08:18;15.50;99.90
14755;DHT22;7469;50.906;6.952;2023-08-06T01:11:00;15.50;99.90
14755;DHT22;7469;50.906;6.952;2023-08-06T01:13:33;15.50;99.90
14755;DHT22;7469;50.906;6.952;2023-08-06T01:16:04;15.50;99.90
14755;DHT22;7469;50.906;6.952;2023-08-06T01:18:33;15.50;99.90
14755;DHT22;7469;50.906;6.952;2023-08-06T01:21:04;15.50;99.90
14755;DHT22;7469;50.906;6.952;2023-08-06T01:23:32;15.50;99.90
14755;DHT22;7469;50.906;6.952;2023-08-06T01:26:05;15.60;99.90
14755;DHT22;7469;50.906;6.952;2023-08-06T01:28:44;15.50;99.90
14755;DHT22;7469;50.906;6.952;2023-08-06T01:31:20;15.60;99.90
14755;DHT22;7469;50.906;6.952;2023-08-06T01:33:49;15.60;99.90
14755;DHT22;7469;50.906;6.952;2023-08-06T01:36:20;15.60;99.90
14755;DHT22;7469;50.906;6.952;2023-08-06T01:38:50;15.60;99.90
14755;DHT22;7469;50.906;6.952;2023-08-06T01:41:18;15.70;99.90
14755;DHT22;7469;50.906;6.952;2023-08-06T01:43:46;15.60;99.90
14755;DHT22;7469;50.906;6.952;2023-08-06T01:46:14;15.60;99.90
14755;DHT22;7469;50.906;6.952;2023-08-06T01:48:42;15.60;99.90
14755;DHT22;7469;50.906;6.952;2023-08-06T01:51:10;15.60;99.90
14755;DHT22;7469;50.906;6.952;2023-08-06T01:53:39;15.60;99.90
14755;DHT22;7469;50.906;6.952;2023-08-06T01:56:07;15.70;99.90
14755;DHT22;7469;50.906;6.952;2023-08-06T01:58:35;15.70;99.90
14755;DHT22;7469;50.906;6.952;2023-08-06T02:01:03;15.70;99.90
14755;DHT22;7469;50.906;6.952;2023-08-06T02:03:31;15.70;99.90
14755;DHT22;7469;50.906;6.952;2023-08-06T02:05:59;15.60;99.90
14755;DHT22;7469;50.906;6.952;2023-08-06T02:08:27;15.60;99.90
14755;DHT22;7469;50.906;6.952;2023-08-06T02:10:57;15.60;99.90
14755;DHT22;7469;50.906;6.952;2023-08-06T02:13:26;15.60;99.90
14755;DHT22;7469;50.906;6.952;2023-08-06T02:15:53;15.60;99.90
14755;DHT22;7469;50.906;6.952;2023-08-06T02:18:21;15.60;99.90
14755;DHT22;7469;50.906;6.952;2023-08-06T02:20:55;15.60;99.90
14755;DHT22;7469;50.906;6.952;2023-08-06T02:23:24;15.60;99.90
14755;DHT22;7469;50.906;6.952;2023-08-06T02:26:01;15.60;99.90
14755;DHT22;7469;50.906;6.952;2023-08-06T02:28:29;15.60;99.90
14755;DHT22;7469;50.906;6.952;2023-08-06T02:30:57;15.60;99.90
14755;DHT22;7469;50.906;6.952;2023-08-06T02:33:25;15.60;99.90
14755;DHT22;7469;50.906;6.952;2023-08-06T02:35:59;15.60;99.90
14755;DHT22;7469;50.906;6.952;2023-08-06T02:38:28;15.50;99.90
14755;DHT22;7469;50.906;6.952;2023-08-06T02:40:56;15.50;99.90
14755;DHT22;7469;50.906;6.952;2023-08-06T02:43:25;15.50;99.90
14755;DHT22;7469;50.906;6.952;2023-08-06T02:45:57;15.50;99.90
14755;DHT22;7469;50.906;6.952;2023-08-06T02:48:25;15.50;99.90
14755;DHT22;7469;50.906;6.952;2023-08-06T02:50:56;15.50;99.90
14755;DHT22;7469;50.906;6.952;2023-08-06T02:53:24;15.50;99.90
14755;DHT22;7469;50.906;6.952;2023-08-06T02:55:52;15.40;99.90
14755;DHT22;7469;50.906;6.952;2023-08-06T02:58:21;15.50;99.90
14755;DHT22;7469;50.906;6.952;2023-08-06T03:01:00;15.40;99.90
14755;DHT22;7469;50.906;6.952;2023-08-06T03:03:29;15.50;99.90
14755;DHT22;7469;50.906;6.952;2023-08-06T03:05:58;15.50;99.90
14755;DHT22;7469;50.906;6.952;2023-08-06T03:08:26;15.50;99.90
14755;DHT22;7469;50.906;6.952;2023-08-06T03:10:53;15.40;99.90
14755;DHT22;7469;50.906;6.952;2023-08-06T03:13:21;15.50;99.90
14755;DHT22;7469;50.906;6.952;2023-08-06T03:15:52;15.40;99.90
14755;DHT22;7469;50.906;6.952;2023-08-06T03:18:23;15.50;99.90
14755;DHT22;7469;50.906;6.952;2023-08-06T03:20:52;15.40;99.90
14755;DHT22;7469;50.906;6.952;2023-08-06T03:23:20;15.50;99.90
14755;DHT22;7469;50.906;6.952;2023-08-06T03:25:48;15.40;99.90
14755;DHT22;7469;50.906;6.952;2023-08-06T03:28:16;15.40;99.90
14755;DHT22;7469;50.906;6.952;2023-08-06T03:30:44;15.40;99.90
14755;DHT22;7469;50.906;6.952;2023-08-06T03:33:12;15.40;99.90
14755;DHT22;7469;50.906;6.952;2023-08-06T03:35:41;15.40;99.90
14755;DHT22;7469;50.906;6.952;2023-08-06T03:38:09;15.40;99.90
14755;DHT22;7469;50.906;6.952;2023-08-06T03:40:37;15.40;99.90
14755;DHT22;7469;50.906;6.952;2023-08-06T03:43:04;15.40;99.90
14755;DHT22;7469;50.906;6.952;2023-08-06T03:45:32;15.40;99.90
14755;DHT22;7469;50.906;6.952;2023-08-06T03:48:00;15.30;99.90
14755;DHT22;7469;50.906;6.952;2023-08-06T03:50:28;15.20;99.90
14755;DHT22;7469;50.906;6.952;2023-08-06T03:52:57;15.20;99.90
14755;DHT22;7469;50.906;6.952;2023-08-06T03:55:25;15.20;99.90
14755;DHT22;7469;50.906;6.952;2023-08-06T03:57:53;15.10;99.90
14755;DHT22;7469;50.906;6.952;2023-08-06T04:00:21;15.10;99.90
14755;DHT22;7469;50.906;6.952;2023-08-06T04:02:49;15.10;99.90
14755;DHT22;7469;50.906;6.952;2023-08-06T04:05:17;15.10;99.90
14755;DHT22;7469;50.906;6.952;2023-08-06T04:07:45;15.10;99.90
14755;DHT22;7469;50.906;6.952;2023-08-06T04:10:14;15.10;99.90
14755;DHT22;7469;50.906;6.952;2023-08-06T04:12:42;15.10;99.90
14755;DHT22;7469;50.906;6.952;2023-08-06T04:15:10;15.20;99.90
14755;DHT22;7469;50.906;6.952;2023-08-06T04:17:38;15.30;99.90
14755;DHT22;7469;50.906;6.952;2023-08-06T04:20:07;15.30;99.90
14755;DHT22;7469;50.906;6.952;2023-08-06T04:22:35;15.40;99.90
14755;DHT22;7469;50.906;6.952;2023-08-06T04:25:04;15.40;99.90
14755;DHT22;7469;50.906;6.952;2023-08-06T04:27:34;15.40;99.90
14755;DHT22;7469;50.906;6.952;2023-08-06T04:30:04;15.40;99.90
14755;DHT22;7469;50.906;6.952;2023-08-06T04:32:36;15.30;99.90
14755;DHT22;7469;50.906;6.952;2023-08-06T04:35:04;15.40;99.90
14755;DHT22;7469;50.906;6.952;2023-08-06T04:37:32;15.40;99.90
14755;DHT22;7469;50.906;6.952;2023-08-06T04:40:00;15.40;99.90
14755;DHT22;7469;50.906;6.952;2023-08-06T04:42:28;15.40;99.90
14755;DHT22;7469;50.906;6.952;2023-08-06T04:44:57;15.40;99.90
14755;DHT22;7469;50.906;6.952;2023-08-06T04:47:25;15.40;99.90
14755;DHT22;7469;50.906;6.952;2023-08-06T04:49:54;15.40;99.90
14755;DHT22;7469;50.906;6.952;2023-08-06T04:52:22;15.40;99.90
14755;DHT22;7469;50.906;6.952;2023-08-06T04:54:48;15.40;99.90
14755;DHT22;7469;50.906;6.952;2023-08-06T04:57:16;15.40;99.90
14755;DHT22;7469;50.906;6.952;2023-08-06T04:59:44;15.40;99.90
14755;DHT22;7469;50.906;6.952;2023-08-06T05:02:14;15.40;99.90
14755;DHT22;7469;50.906;6.952;2023-08-06T05:04:41;15.40;99.90
14755;DHT22;7469;50.906;6.952;2023-08-06T05:07:10;15.40;99.90
14755;DHT22;7469;50.906;6.952;2023-08-06T05:09:38;15.40;99.90
14755;DHT22;7469;50.906;6.952;2023-08-06T05:12:07;15.40;99.90
14755;DHT22;7469;50.906;6.952;2023-08-06T05:14:35;15.40;99.90
14755;DHT22;7469;50.906;6.952;2023-08-06T05:17:04;15.50;99.90
14755;DHT22;7469;50.906;6.952;2023-08-06T05:19:33;15.60;99.90
14755;DHT22;7469;50.906;6.952;2023-08-06T05:22:01;15.60;99.90
14755;DHT22;7469;50.906;6.952;2023-08-06T05:24:29;15.60;99.90
14755;DHT22;7469;50.906;6.952;2023-08-06T05:26:57;15.60;99.90
14755;DHT22;7469;50.906;6.952;2023-08-06T05:29:24;15.60;99.90
14755;DHT22;7469;50.906;6.952;2023-08-06T05:31:53;15.60;99.90
14755;DHT22;7469;50.906;6.952;2023-08-06T05:34:22;15.70;99.90
14755;DHT22;7469;50.906;6.952;2023-08-06T05:36:51;15.80;99.90
14755;DHT22;7469;50.906;6.952;2023-08-06T05:39:19;15.80;99.90
14755;DHT22;7469;50.906;6.952;2023-08-06T05:41:47;15.80;99.90
14755;DHT22;7469;50.906;6.952;2023-08-06T05:44:17;15.80;99.90
14755;DHT22;7469;50.906;6.952;2023-08-06T05:46:45;15.80;99.90
14755;DHT22;7469;50.906;6.952;2023-08-06T05:49:13;15.80;99.90
14755;DHT22;7469;50.906;6.952;2023-08-06T05:51:41;15.90;99.90
14755;DHT22;7469;50.906;6.952;2023-08-06T05:54:11;15.80;99.90
14755;DHT22;7469;50.906;6.952;2023-08-06T05:56:39;15.90;99.90
14755;DHT22;7469;50.906;6.952;2023-08-06T05:59:07;15.90;99.90
14755;DHT22;7469;50.906;6.952;2023-08-06T06:01:35;15.90;99.90
14755;DHT22;7469;50.906;6.952;2023-08-06T06:04:03;15.80;99.90
14755;DHT22;7469;50.906;6.952;2023-08-06T06:06:31;15.80;99.90
14755;DHT22;7469;50.906;6.952;2023-08-06T06:08:59;15.80;99.90
14755;DHT22;7469;50.906;6.952;2023-08-06T06:11:28;15.90;99.90
14755;DHT22;7469;50.906;6.952;2023-08-06T06:13:56;15.90;99.90
14755;DHT22;7469;50.906;6.952;2023-08-06T06:16:24;15.90;99.90
14755;DHT22;7469;50.906;6.952;2023-08-06T06:18:52;15.90;99.90
14755;DHT22;7469;50.906;6.952;2023-08-06T06:21:21;16.00;99.90
14755;DHT22;7469;50.906;6.952;2023-08-06T06:23:49;16.00;99.90
14755;DHT22;7469;50.906;6.952;2023-08-06T06:26:18;15.90;99.90
14755;DHT22;7469;50.906;6.952;2023-08-06T06:28:47;15.90;99.90
14755;DHT22;7469;50.906;6.952;2023-08-06T06:31:15;15.90;99.90
14755;DHT22;7469;50.906;6.952;2023-08-06T06:33:43;16.00;99.90
14755;DHT22;7469;50.906;6.952;2023-08-06T06:36:11;16.00;99.90
14755;DHT22;7469;50.906;6.952;2023-08-06T06:38:39;16.00;99.90
14755;DHT22;7469;50.906;6.952;2023-08-06T06:41:07;16.00;99.90
14755;DHT22;7469;50.906;6.952;2023-08-06T06:43:35;16.10;99.90
14755;DHT22;7469;50.906;6.952;2023-08-06T06:46:05;16.00;99.90
14755;DHT22;7469;50.906;6.952;2023-08-06T06:48:34;16.00;99.90
14755;DHT22;7469;50.906;6.952;2023-08-06T06:51:02;15.90;99.90
14755;DHT22;7469;50.906;6.952;2023-08-06T06:53:29;16.00;99.90
14755;DHT22;7469;50.906;6.952;2023-08-06T06:56:03;15.90;99.90
14755;DHT22;7469;50.906;6.952;2023-08-06T06:58:31;15.90;99.90
14755;DHT22;7469;50.906;6.952;2023-08-06T07:00:59;16.00;99.90
14755;DHT22;7469;50.906;6.952;2023-08-06T07:03:29;15.90;99.90
14755;DHT22;7469;50.906;6.952;2023-08-06T07:05:57;15.90;99.90
14755;DHT22;7469;50.906;6.952;2023-08-06T07:08:26;15.90;99.90
14755;DHT22;7469;50.906;6.952;2023-08-06T07:11:00;15.80;99.90
14755;DHT22;7469;50.906;6.952;2023-08-06T07:13:29;15.90;99.90
14755;DHT22;7469;50.906;6.952;2023-08-06T07:15:57;15.80;99.90
14755;DHT22;7469;50.906;6.952;2023-08-06T07:18:25;15.90;99.90
14755;DHT22;7469;50.906;6.952;2023-08-06T07:20:55;15.90;99.90
14755;DHT22;7469;50.906;6.952;2023-08-06T07:23:24;15.90;99.90
14755;DHT22;7469;50.906;6.952;2023-08-06T07:25:53;15.90;99.90
14755;DHT22;7469;50.906;6.952;2023-08-06T07:28:21;15.90;99.90
14755;DHT22;7469;50.906;6.952;2023-08-06T07:30:49;16.00;99.90
14755;DHT22;7469;50.906;6.952;2023-08-06T07:33:17;16.00;99.90
14755;DHT22;7469;50.906;6.952;2023-08-06T07:35:45;16.00;99.90
14755;DHT22;7469;50.906;6.952;2023-08-06T07:38:14;16.00;99.90
14755;DHT22;7469;50.906;6.952;2023-08-06T07:40:42;16.00;99.90
14755;DHT22;7469;50.906;6.952;2023-08-06T07:43:10;16.00;99.90
14755;DHT22;7469;50.906;6.952;2023-08-06T07:45:39;16.00;99.90
14755;DHT22;7469;50.906;6.952;2023-08-06T07:48:07;16.10;99.90
14755;DHT22;7469;50.906;6.952;2023-08-06T07:50:35;16.10;99.90
14755;DHT22;7469;50.906;6.952;2023-08-06T07:53:03;16.10;99.90
14755;DHT22;7469;50.906;6.952;2023-08-06T07:55:32;16.20;99.90
14755;DHT22;7469;50.906;6.952;2023-08-06T07:58:00;16.30;99.90
14755;DHT22;7469;50.906;6.952;2023-08-06T08:00:28;16.40;99.90
14755;DHT22;7469;50.906;6.952;2023-08-06T08:02:56;16.40;99.90
14755;DHT22;7469;50.906;6.952;2023-08-06T08:05:24;16.50;99.90
14755;DHT22;7469;50.906;6.952;2023-08-06T08:07:52;16.50;99.90
14755;DHT22;7469;50.906;6.952;2023-08-06T08:10:21;16.60;99.90
14755;DHT22;7469;50.906;6.952;2023-08-06T08:12:50;16.70;99.90
14755;DHT22;7469;50.906;6.952;2023-08-06T08:15:18;16.70;99.90
14755;DHT22;7469;50.906;6.952;2023-08-06T08:17:46;16.70;99.90
14755;DHT22;7469;50.906;6.952;2023-08-06T08:20:16;16.80;99.90
14755;DHT22;7469;50.906;6.952;2023-08-06T08:22:44;16.80;99.90
14755;DHT22;7469;50.906;6.952;2023-08-06T08:25:12;16.90;99.90
14755;DHT22;7469;50.906;6.952;2023-08-06T08:27:40;16.90;99.90
14755;DHT22;7469;50.906;6.952;2023-08-06T08:30:10;17.00;99.90
14755;DHT22;7469;50.906;6.952;2023-08-06T08:32:38;17.10;99.90
14755;DHT22;7469;50.906;6.952;2023-08-06T08:35:06;17.20;99.90
14755;DHT22;7469;50.906;6.952;2023-08-06T08:37:34;17.30;99.90
14755;DHT22;7469;50.906;6.952;2023-08-06T08:40:03;17.40;99.90
14755;DHT22;7469;50.906;6.952;2023-08-06T08:42:32;17.50;99.90
14755;DHT22;7469;50.906;6.952;2023-08-06T08:45:00;17.60;99.90
14755;DHT22;7469;50.906;6.952;2023-08-06T08:47:30;17.50;99.90
14755;DHT22;7469;50.906;6.952;2023-08-06T08:50:00;17.60;99.90
14755;DHT22;7469;50.906;6.952;2023-08-06T08:52:31;17.60;99.90
14755;DHT22;7469;50.906;6.952;2023-08-06T08:55:01;17.60;99.90
14755;DHT22;7469;50.906;6.952;2023-08-06T08:57:29;17.70;99.90
14755;DHT22;7469;50.906;6.952;2023-08-06T08:59:57;17.70;99.90
14755;DHT22;7469;50.906;6.952;2023-08-06T09:02:29;17.80;99.90
14755;DHT22;7469;50.906;6.952;2023-08-06T09:04:59;17.90;99.90
14755;DHT22;7469;50.906;6.952;2023-08-06T09:07:32;18.00;99.90
14755;DHT22;7469;50.906;6.952;2023-08-06T09:10:03;18.00;99.90
14755;DHT22;7469;50.906;6.952;2023-08-06T09:12:32;18.10;99.90
14755;DHT22;7469;50.906;6.952;2023-08-06T09:15:00;18.10;99.90
14755;DHT22;7469;50.906;6.952;2023-08-06T09:17:31;18.10;99.90
14755;DHT22;7469;50.906;6.952;2023-08-06T09:19:59;18.10;99.90
14755;DHT22;7469;50.906;6.952;2023-08-06T09:22:36;18.10;99.90
14755;DHT22;7469;50.906;6.952;2023-08-06T09:25:04;18.10;99.90
14755;DHT22;7469;50.906;6.952;2023-08-06T09:27:36;18.20;99.90
14755;DHT22;7469;50.906;6.952;2023-08-06T09:30:05;18.20;99.90
14755;DHT22;7469;50.906;6.952;2023-08-06T09:32:49;18.20;99.90
14755;DHT22;7469;50.906;6.952;2023-08-06T09:35:18;18.20;99.90
14755;DHT22;7469;50.906;6.952;2023-08-06T09:37:46;18.20;99.90
14755;DHT22;7469;50.906;6.952;2023-08-06T09:40:25;18.20;99.90
14755;DHT22;7469;50.906;6.952;2023-08-06T09:42:54;18.20;99.90
14755;DHT22;7469;50.906;6.952;2023-08-06T09:45:22;18.20;99.90
14755;DHT22;7469;50.906;6.952;2023-08-06T09:47:55;18.20;99.90
14755;DHT22;7469;50.906;6.952;2023-08-06T09:50:28;18.10;99.90
14755;DHT22;7469;50.906;6.952;2023-08-06T09:52:57;18.00;99.90
14755;DHT22;7469;50.906;6.952;2023-08-06T09:55:26;18.00;99.90
14755;DHT22;7469;50.906;6.952;2023-08-06T09:57:55;17.90;99.90
14755;DHT22;7469;50.906;6.952;2023-08-06T10:00:23;17.80;99.90
14755;DHT22;7469;50.906;6.952;2023-08-06T10:02:53;17.60;99.90
14755;DHT22;7469;50.906;6.952;2023-08-06T10:05:22;17.60;99.90
14755;DHT22;7469;50.906;6.952;2023-08-06T10:07:50;17.50;99.90
14755;DHT22;7469;50.906;6.952;2023-08-06T10:10:19;17.40;99.90
14755;DHT22;7469;50.906;6.952;2023-08-06T10:12:49;17.30;99.90
14755;DHT22;7469;50.906;6.952;2023-08-06T10:15:27;17.20;99.90
14755;DHT22;7469;50.906;6.952;2023-08-06T10:17:59;17.10;99.90
14755;DHT22;7469;50.906;6.952;2023-08-06T10:20:33;16.80;99.90
14755;DHT22;7469;50.906;6.952;2023-08-06T10:23:02;16.50;99.90
14755;DHT22;7469;50.906;6.952;2023-08-06T10:25:31;16.30;99.90
14755;DHT22;7469;50.906;6.952;2023-08-06T10:28:00;16.10;99.90
14755;DHT22;7469;50.906;6.952;2023-08-06T10:30:30;16.00;99.90
14755;DHT22;7469;50.906;6.952;2023-08-06T10:33:01;16.00;99.90
14755;DHT22;7469;50.906;6.952;2023-08-06T10:35:35;15.90;99.90
14755;DHT22;7469;50.906;6.952;2023-08-06T10:38:05;15.90;99.90
14755;DHT22;7469;50.906;6.952;2023-08-06T10:40:33;15.80;99.90
14755;DHT22;7469;50.906;6.952;2023-08-06T10:43:02;15.80;99.90
14755;DHT22;7469;50.906;6.952;2023-08-06T10:45:30;15.80;99.90
14755;DHT22;7469;50.906;6.952;2023-08-06T10:48:03;15.90;99.90
14755;DHT22;7469;50.906;6.952;2023-08-06T10:50:32;15.90;99.90
14755;DHT22;7469;50.906;6.952;2023-08-06T10:53:04;15.80;99.90
14755;DHT22;7469;50.906;6.952;2023-08-06T10:55:33;15.80;99.90
14755;DHT22;7469;50.906;6.952;2023-08-06T10:58:01;15.80;99.90
14755;DHT22;7469;50.906;6.952;2023-08-06T11:00:29;15.80;99.90
14755;DHT22;7469;50.906;6.952;2023-08-06T11:02:57;15.80;99.90
14755;DHT22;7469;50.906;6.952;2023-08-06T11:05:26;15.80;99.90
14755;DHT22;7469;50.906;6.952;2023-08-06T11:07:54;15.80;99.90
14755;DHT22;7469;50.906;6.952;2023-08-06T11:10:22;15.80;99.90
14755;DHT22;7469;50.906;6.952;2023-08-06T11:12:51;15.80;99.90
14755;DHT22;7469;50.906;6.952;2023-08-06T11:15:20;15.90;99.90
14755;DHT22;7469;50.906;6.952;2023-08-06T11:17:48;15.80;99.90
14755;DHT22;7469;50.906;6.952;2023-08-06T11:20:16;15.80;99.90
14755;DHT22;7469;50.906;6.952;2023-08-06T11:22:46;15.80;99.90
14755;DHT22;7469;50.906;6.952;2023-08-06T11:25:14;15.70;99.90
14755;DHT22;7469;50.906;6.952;2023-08-06T11:27:42;15.80;99.90
14755;DHT22;7469;50.906;6.952;2023-08-06T11:30:11;15.80;99.90
14755;DHT22;7469;50.906;6.952;2023-08-06T11:32:46;15.80;99.90
14755;DHT22;7469;50.906;6.952;2023-08-06T11:35:15;15.80;99.90
14755;DHT22;7469;50.906;6.952;2023-08-06T11:37:45;15.70;99.90
14755;DHT22;7469;50.906;6.952;2023-08-06T11:40:15;15.70;99.90
14755;DHT22;7469;50.906;6.952;2023-08-06T11:42:46;15.90;99.90
14755;DHT22;7469;50.906;6.952;2023-08-06T11:45:14;15.80;99.90
14755;DHT22;7469;50.906;6.952;2023-08-06T11:47:49;15.80;99.90
14755;DHT22;7469;50.906;6.952;2023-08-06T11:50:22;15.90;99.90
14755;DHT22;7469;50.906;6.952;2023-08-06T11:52:56;15.90;99.90
14755;DHT22;7469;50.906;6.952;2023-08-06T11:55:25;16.00;99.90
14755;DHT22;7469;50.906;6.952;2023-08-06T11:57:53;16.10;99.90
14755;DHT22;7469;50.906;6.952;2023-08-06T12:00:23;16.10;99.90
14755;DHT22;7469;50.906;6.952;2023-08-06T12:02:52;16.10;99.90
14755;DHT22;7469;50.906;6.952;2023-08-06T12:05:22;16.20;99.90
14755;DHT22;7469;50.906;6.952;2023-08-06T12:07:52;16.30;99.90
14755;DHT22;7469;50.906;6.952;2023-08-06T12:10:24;16.40;99.90
14755;DHT22;7469;50.906;6.952;2023-08-06T12:12:53;16.40;99.90
14755;DHT22;7469;50.906;6.952;2023-08-06T12:15:22;16.40;99.90
14755;DHT22;7469;50.906;6.952;2023-08-06T12:17:50;16.50;99.90
14755;DHT22;7469;50.906;6.952;2023-08-06T12:20:18;16.50;99.90
14755;DHT22;7469;50.906;6.952;2023-08-06T12:22:46;16.60;99.90
14755;DHT22;7469;50.906;6.952;2023-08-06T12:25:14;16.70;99.90
14755;DHT22;7469;50.906;6.952;2023-08-06T12:27:44;16.80;99.90
14755;DHT22;7469;50.906;6.952;2023-08-06T12:30:12;16.80;99.90
14755;DHT22;7469;50.906;6.952;2023-08-06T12:32:40;16.90;99.90
14755;DHT22;7469;50.906;6.952;2023-08-06T12:35:09;16.90;99.90
14755;DHT22;7469;50.906;6.952;2023-08-06T12:37:37;16.90;99.90
14755;DHT22;7469;50.906;6.952;2023-08-06T12:40:06;16.90;99.90
14755;DHT22;7469;50.906;6.952;2023-08-06T12:42:55;16.90;99.90
14755;DHT22;7469;50.906;6.952;2023-08-06T12:45:25;16.80;99.90
14755;DHT22;7469;50.906;6.952;2023-08-06T12:47:53;16.70;99.90
14755;DHT22;7469;50.906;6.952;2023-08-06T12:50:22;16.60;99.90
14755;DHT22;7469;50.906;6.952;2023-08-06T12:52:49;16.40;99.90
14755;DHT22;7469;50.906;6.952;2023-08-06T12:55:18;16.30;99.90
14755;DHT22;7469;50.906;6.952;2023-08-06T12:57:46;16.20;99.90
14755;DHT22;7469;50.906;6.952;2023-08-06T13:00:26;16.20;99.90
14755;DHT22;7469;50.906;6.952;2023-08-06T13:02:54;16.10;99.90
14755;DHT22;7469;50.906;6.952;2023-08-06T13:05:22;16.10;99.90
14755;DHT22;7469;50.906;6.952;2023-08-06T13:07:50;16.10;99.90
14755;DHT22;7469;50.906;6.952;2023-08-06T13:10:18;16.10;99.90
14755;DHT22;7469;50.906;6.952;2023-08-06T13:12:47;16.10;99.90
14755;DHT22;7469;50.906;6.952;2023-08-06T13:15:15;16.20;99.90
14755;DHT22;7469;50.906;6.952;2023-08-06T13:17:45;16.20;99.90
14755;DHT22;7469;50.906;6.952;2023-08-06T13:20:13;16.30;99.90
14755;DHT22;7469;50.906;6.952;2023-08-06T13:22:44;16.40;99.90
14755;DHT22;7469;50.906;6.952;2023-08-06T13:25:13;16.40;99.90
14755;DHT22;7469;50.906;6.952;2023-08-06T13:27:42;16.50;99.90
14755;DHT22;7469;50.906;6.952;2023-08-06T13:30:12;16.50;99.90
14755;DHT22;7469;50.906;6.952;2023-08-06T13:32:40;16.50;99.90
14755;DHT22;7469;50.906;6.952;2023-08-06T13:35:10;16.60;99.90
14755;DHT22;7469;50.906;6.952;2023-08-06T13:37:38;16.50;99.90
14755;DHT22;7469;50.906;6.952;2023-08-06T13:40:07;16.50;99.90
14755;DHT22;7469;50.906;6.952;2023-08-06T13:42:35;16.40;99.90
14755;DHT22;7469;50.906;6.952;2023-08-06T13:45:04;16.30;99.90
14755;DHT22;7469;50.906;6.952;2023-08-06T13:47:32;16.40;99.90
14755;DHT22;7469;50.906;6.952;2023-08-06T13:50:00;16.40;99.90
14755;DHT22;7469;50.906;6.952;2023-08-06T13:52:31;16.40;99.90
14755;DHT22;7469;50.906;6.952;2023-08-06T13:54:59;16.50;99.90
14755;DHT22;7469;50.906;6.952;2023-08-06T13:57:27;16.50;99.90
14755;DHT22;7469;50.906;6.952;2023-08-06T13:59:55;16.50;99.90
14755;DHT22;7469;50.906;6.952;2023-08-06T14:02:23;16.50;99.90
14755;DHT22;7469;50.906;6.952;2023-08-06T14:04:52;16.50;99.90
14755;DHT22;7469;50.906;6.952;2023-08-06T14:07:20;16.50;99.90
14755;DHT22;7469;50.906;6.952;2023-08-06T14:09:49;16.50;99.90
14755;DHT22;7469;50.906;6.952;2023-08-06T14:12:17;16.60;99.90
14755;DHT22;7469;50.906;6.952;2023-08-06T14:14:45;16.60;99.90
14755;DHT22;7469;50.906;6.952;2023-08-06T14:17:13;16.60;99.90
14755;DHT22;7469;50.906;6.952;2023-08-06T14:19:42;16.60;99.90
14755;DHT22;7469;50.906;6.952;2023-08-06T14:22:10;16.60;99.90
14755;DHT22;7469;50.906;6.952;2023-08-06T14:24:38;16.60;99.90
14755;DHT22;7469;50.906;6.952;2023-08-06T14:27:07;16.60;99.90
14755;DHT22;7469;50.906;6.952;2023-08-06T14:29:35;16.70;99.90
14755;DHT22;7469;50.906;6.952;2023-08-06T14:32:04;16.70;99.90
14755;DHT22;7469;50.906;6.952;2023-08-06T14:34:32;16.80;99.90
14755;DHT22;7469;50.906;6.952;2023-08-06T14:37:00;16.90;99.90
14755;DHT22;7469;50.906;6.952;2023-08-06T14:39:28;16.90;99.90
14755;DHT22;7469;50.906;6.952;2023-08-06T14:41:56;16.90;99.90
14755;DHT22;7469;50.906;6.952;2023-08-06T14:44:25;16.80;99.90
14755;DHT22;7469;50.906;6.952;2023-08-06T14:46:53;16.80;99.90
14755;DHT22;7469;50.906;6.952;2023-08-06T14:49:22;16.80;99.90
14755;DHT22;7469;50.906;6.952;2023-08-06T14:51:50;16.70;99.90
14755;DHT22;7469;50.906;6.952;2023-08-06T14:54:18;16.80;99.90
14755;DHT22;7469;50.906;6.952;2023-08-06T14:56:46;16.80;99.90
14755;DHT22;7469;50.906;6.952;2023-08-06T14:59:14;16.80;99.90
14755;DHT22;7469;50.906;6.952;2023-08-06T15:01:43;16.90;99.90
14755;DHT22;7469;50.906;6.952;2023-08-06T15:04:11;16.90;99.90
14755;DHT22;7469;50.906;6.952;2023-08-06T15:06:39;16.90;99.90
14755;DHT22;7469;50.906;6.952;2023-08-06T15:09:07;17.00;99.90
14755;DHT22;7469;50.906;6.952;2023-08-06T15:11:35;17.00;99.90
14755;DHT22;7469;50.906;6.952;2023-08-06T15:14:03;17.00;99.90
14755;DHT22;7469;50.906;6.952;2023-08-06T15:16:33;17.00;99.90
14755;DHT22;7469;50.906;6.952;2023-08-06T15:19:03;17.00;99.90
14755;DHT22;7469;50.906;6.952;2023-08-06T15:21:31;17.10;99.90
14755;DHT22;7469;50.906;6.952;2023-08-06T15:23:59;17.10;99.90
14755;DHT22;7469;50.906;6.952;2023-08-06T15:26:27;17.10;99.90
14755;DHT22;7469;50.906;6.952;2023-08-06T15:28:55;17.10;99.90
14755;DHT22;7469;50.906;6.952;2023-08-06T15:31:23;17.20;99.90
14755;DHT22;7469;50.906;6.952;2023-08-06T15:33:59;17.20;99.90
14755;DHT22;7469;50.906;6.952;2023-08-06T15:36:28;17.20;99.90
14755;DHT22;7469;50.906;6.952;2023-08-06T15:38:56;17.10;99.90
14755;DHT22;7469;50.906;6.952;2023-08-06T15:41:24;17.10;99.90
14755;DHT22;7469;50.906;6.952;2023-08-06T15:43:52;17.10;99.90
14755;DHT22;7469;50.906;6.952;2023-08-06T15:46:20;17.10;99.90
14755;DHT22;7469;50.906;6.952;2023-08-06T15:48:48;17.10;99.90
14755;DHT22;7469;50.906;6.952;2023-08-06T15:51:16;17.10;99.90
14755;DHT22;7469;50.906;6.952;2023-08-06T15:53:45;17.00;99.90
14755;DHT22;7469;50.906;6.952;2023-08-06T15:56:13;16.90;99.90